createdAt,value
2018-05-15T00:02:06.675Z,13.30
2018-05-15T00:04:34.895Z,13.30
2018-05-15T00:07:02.334Z,13.30
2018-05-15T00:09:29.794Z,13.30
2018-05-15T00:11:57.246Z,13.30
2018-05-15T00:14:24.711Z,13.30
2018-05-15T00:16:52.152Z,13.30
2018-05-15T00:19:19.778Z,13.30
2018-05-15T00:21:47.994Z,13.30
2018-05-15T00:24:15.451Z,13.30
2018-05-15T00:26:42.907Z,13.30
2018-05-15T00:29:10.379Z,13.30
2018-05-15T00:31:37.826Z,13.30
2018-05-15T00:34:05.286Z,13.30
2018-05-15T00:36:32.727Z,13.30
2018-05-15T00:39:00.188Z,13.20
2018-05-15T00:41:27.641Z,13.20
2018-05-15T00:43:55.093Z,13.30
2018-05-15T00:46:22.544Z,13.20
2018-05-15T00:48:49.995Z,13.20
2018-05-15T00:51:17.454Z,13.20
2018-05-15T00:53:44.914Z,13.20
2018-05-15T00:56:12.363Z,13.20
2018-05-15T00:58:39.808Z,13.20
2018-05-15T01:01:07.263Z,13.20
2018-05-15T01:03:34.729Z,13.20
2018-05-15T01:06:02.168Z,13.20
2018-05-15T01:08:29.637Z,13.20
2018-05-15T01:10:57.087Z,13.20
2018-05-15T01:13:24.553Z,13.20
2018-05-15T01:15:52.008Z,13.20
2018-05-15T01:18:19.465Z,13.20
2018-05-15T01:20:46.914Z,13.20
2018-05-15T01:23:14.373Z,13.20
2018-05-15T01:25:41.812Z,13.20
2018-05-15T01:28:09.276Z,13.20
2018-05-15T01:30:36.736Z,13.20
2018-05-15T01:33:04.169Z,13.20
2018-05-15T01:35:31.623Z,13.20
2018-05-15T01:37:59.073Z,13.20
2018-05-15T01:40:27.308Z,13.10
2018-05-15T01:42:54.755Z,13.20
2018-05-15T01:45:22.201Z,13.10
2018-05-15T01:47:49.655Z,13.20
2018-05-15T01:50:17.114Z,13.20
2018-05-15T01:52:44.584Z,13.10
2018-05-15T01:55:12.027Z,13.10
2018-05-15T01:57:39.473Z,13.10
2018-05-15T02:00:06.929Z,13.10
2018-05-15T02:02:34.372Z,13.10
2018-05-15T02:05:01.813Z,13.10
2018-05-15T02:07:29.259Z,13.10
2018-05-15T02:09:57.474Z,13.10
2018-05-15T02:12:24.916Z,13.10
2018-05-15T02:14:52.377Z,13.10
2018-05-15T02:17:19.834Z,13.10
2018-05-15T02:19:47.290Z,13.10
2018-05-15T02:22:14.746Z,13.10
2018-05-15T02:24:42.194Z,13.10
2018-05-15T02:27:09.655Z,13.10
2018-05-15T02:29:37.117Z,13.10
2018-05-15T02:32:04.564Z,13.00
2018-05-15T02:34:32.008Z,13.00
2018-05-15T02:36:59.449Z,13.00
2018-05-15T02:39:26.894Z,13.00
2018-05-15T02:41:55.120Z,13.10
2018-05-15T02:44:22.570Z,13.00
2018-05-15T02:46:50.011Z,13.10
2018-05-15T02:49:17.464Z,13.10
2018-05-15T02:51:44.922Z,13.10
2018-05-15T02:54:12.390Z,13.10
2018-05-15T02:56:39.846Z,13.10
2018-05-15T02:59:07.326Z,13.10
2018-05-15T03:01:34.797Z,13.10
2018-05-15T03:04:02.237Z,13.10
2018-05-15T03:06:29.698Z,13.10
2018-05-15T03:08:57.148Z,13.10
2018-05-15T03:11:24.601Z,13.10
2018-05-15T03:13:52.051Z,13.10
2018-05-15T03:16:19.501Z,13.10
2018-05-15T03:18:46.964Z,13.10
2018-05-15T03:21:14.471Z,13.10
2018-05-15T03:23:41.909Z,13.10
2018-05-15T03:26:10.133Z,13.10
2018-05-15T03:28:37.573Z,13.10
2018-05-15T03:31:05.027Z,13.10
2018-05-15T03:33:32.479Z,13.10
2018-05-15T03:35:59.939Z,13.10
2018-05-15T03:38:27.397Z,13.10
2018-05-15T03:40:54.849Z,13.10
2018-05-15T03:43:22.293Z,13.10
2018-05-15T03:45:49.761Z,13.10
2018-05-15T03:48:17.204Z,13.10
2018-05-15T03:50:44.668Z,13.10
2018-05-15T03:53:12.122Z,13.10
2018-05-15T03:55:39.616Z,13.00
2018-05-15T03:58:07.048Z,13.00
2018-05-15T04:00:46.405Z,13.00
2018-05-15T04:03:26.019Z,13.00
2018-05-15T04:06:05.349Z,13.00
2018-05-15T04:08:32.821Z,13.00
2018-05-15T04:11:00.363Z,13.00
2018-05-15T04:13:27.699Z,13.00
2018-05-15T04:15:55.149Z,13.00
2018-05-15T04:18:23.454Z,13.00
2018-05-15T04:20:51.647Z,13.00
2018-05-15T04:23:19.121Z,13.00
2018-05-15T04:25:46.603Z,13.00
2018-05-15T04:28:16.723Z,13.00
2018-05-15T04:30:44.401Z,13.00
2018-05-15T04:33:11.850Z,13.00
2018-05-15T04:35:39.306Z,13.00
2018-05-15T04:38:06.748Z,13.00
2018-05-15T04:40:34.963Z,13.00
2018-05-15T04:43:02.419Z,13.00
2018-05-15T04:45:29.861Z,13.00
2018-05-15T04:47:57.321Z,13.00
2018-05-15T04:50:24.769Z,13.00
2018-05-15T04:52:52.221Z,13.00
2018-05-15T04:55:19.681Z,13.00
2018-05-15T04:57:47.121Z,13.00
2018-05-15T05:00:14.611Z,13.00
2018-05-15T05:02:42.058Z,13.00
2018-05-15T05:05:09.521Z,13.00
2018-05-15T05:07:36.983Z,13.00
2018-05-15T05:10:05.192Z,13.00
2018-05-15T05:12:33.413Z,13.00
2018-05-15T05:15:00.866Z,13.00
2018-05-15T05:17:28.334Z,13.00
2018-05-15T05:19:55.776Z,13.00
2018-05-15T05:22:23.245Z,13.00
2018-05-15T05:24:50.701Z,13.00
2018-05-15T05:27:18.162Z,13.00
2018-05-15T05:29:45.617Z,13.00
2018-05-15T05:32:13.071Z,13.00
2018-05-15T05:34:40.522Z,13.00
2018-05-15T05:37:07.991Z,13.00
2018-05-15T05:39:35.527Z,13.00
2018-05-15T05:42:02.965Z,13.00
2018-05-15T05:44:30.478Z,13.00
2018-05-15T05:46:57.918Z,13.00
2018-05-15T05:49:25.371Z,13.00
2018-05-15T05:51:52.891Z,13.00
2018-05-15T05:54:20.269Z,13.00
2018-05-15T05:56:47.728Z,13.00
2018-05-15T05:59:15.176Z,12.90
2018-05-15T06:01:42.626Z,12.90
2018-05-15T06:04:10.081Z,12.90
2018-05-15T06:06:37.520Z,12.90
2018-05-15T06:09:04.984Z,12.90
2018-05-15T06:11:32.426Z,12.90
2018-05-15T06:13:59.887Z,13.00
2018-05-15T06:16:27.324Z,13.00
2018-05-15T06:18:54.782Z,13.00
2018-05-15T06:21:22.222Z,13.00
2018-05-15T06:23:50.446Z,13.00
2018-05-15T06:26:17.891Z,13.10
2018-05-15T06:28:45.343Z,13.10
2018-05-15T06:31:12.789Z,13.10
2018-05-15T06:33:40.241Z,13.10
2018-05-15T06:36:07.682Z,13.10
2018-05-15T06:38:35.921Z,13.10
2018-05-15T06:41:03.347Z,13.10
2018-05-15T06:43:30.806Z,13.10
2018-05-15T06:45:58.264Z,13.10
2018-05-15T06:48:25.729Z,13.10
2018-05-15T06:50:53.184Z,13.10
2018-05-15T06:53:20.638Z,13.10
2018-05-15T06:55:48.110Z,13.20
2018-05-15T06:58:15.694Z,13.20
2018-05-15T07:00:43.925Z,13.20
2018-05-15T07:03:11.366Z,13.20
2018-05-15T07:05:38.815Z,13.20
2018-05-15T07:08:06.258Z,13.30
2018-05-15T07:10:33.717Z,13.20
2018-05-15T07:13:01.235Z,13.30
2018-05-15T07:15:28.697Z,13.30
2018-05-15T07:17:56.911Z,13.30
2018-05-15T07:20:24.368Z,13.30
2018-05-15T07:22:51.806Z,13.30
2018-05-15T07:25:19.256Z,13.30
2018-05-15T07:27:47.467Z,13.40
2018-05-15T07:30:14.924Z,13.40
2018-05-15T07:32:42.384Z,13.40
2018-05-15T07:35:09.840Z,13.40
2018-05-15T07:37:37.273Z,13.40
2018-05-15T07:40:04.735Z,13.50
2018-05-15T07:42:32.184Z,13.50
2018-05-15T07:44:59.646Z,13.50
2018-05-15T07:47:27.084Z,13.50
2018-05-15T07:49:54.539Z,13.50
2018-05-15T07:52:21.979Z,13.50
2018-05-15T07:54:50.198Z,13.50
2018-05-15T07:57:17.648Z,13.50
2018-05-15T07:59:45.109Z,13.50
2018-05-15T08:02:12.628Z,13.40
2018-05-15T08:04:40.033Z,13.40
2018-05-15T08:07:07.486Z,13.30
2018-05-15T08:09:34.957Z,13.30
2018-05-15T08:12:02.398Z,13.30
2018-05-15T08:14:29.854Z,13.20
2018-05-15T08:16:57.302Z,13.20
2018-05-15T08:19:24.752Z,13.30
2018-05-15T08:21:52.205Z,13.20
2018-05-15T08:24:19.672Z,13.20
2018-05-15T08:26:47.126Z,13.20
2018-05-15T08:29:14.576Z,13.10
2018-05-15T08:31:42.030Z,13.10
2018-05-15T08:34:09.486Z,13.10
2018-05-15T08:36:36.942Z,13.00
2018-05-15T08:39:04.434Z,13.00
2018-05-15T08:41:31.923Z,13.00
2018-05-15T08:43:59.365Z,13.10
2018-05-15T08:46:27.584Z,13.10
2018-05-15T08:48:55.034Z,13.10
2018-05-15T08:51:22.508Z,13.10
2018-05-15T08:53:49.983Z,13.10
2018-05-15T08:56:17.436Z,13.10
2018-05-15T08:58:44.891Z,13.10
2018-05-15T09:01:12.381Z,13.20
2018-05-15T09:03:39.802Z,13.20
2018-05-15T09:06:07.386Z,13.20
2018-05-15T09:08:36.538Z,13.20
2018-05-15T09:11:04.005Z,13.30
2018-05-15T09:13:31.490Z,13.30
2018-05-15T09:15:59.021Z,13.30
2018-05-15T09:18:27.156Z,13.30
2018-05-15T09:20:54.610Z,13.30
2018-05-15T09:23:22.077Z,13.40
2018-05-15T09:25:49.531Z,13.40
2018-05-15T09:28:16.978Z,13.40
2018-05-15T09:30:44.427Z,13.50
2018-05-15T09:33:11.887Z,13.50
2018-05-15T09:35:39.355Z,13.50
2018-05-15T09:38:06.799Z,13.50
2018-05-15T09:40:34.252Z,13.50
2018-05-15T09:43:01.715Z,13.60
2018-05-15T09:45:29.169Z,13.70
2018-05-15T09:47:56.624Z,13.70
2018-05-15T09:50:24.078Z,13.80
2018-05-15T09:52:51.529Z,13.90
2018-05-15T09:55:18.993Z,14.00
2018-05-15T09:57:46.453Z,14.10
2018-05-15T10:00:13.890Z,14.20
2018-05-15T10:02:41.357Z,14.30
2018-05-15T10:05:08.909Z,14.40
2018-05-15T10:07:36.471Z,14.30
2018-05-15T10:10:03.830Z,14.30
2018-05-15T10:12:31.294Z,14.30
2018-05-15T10:14:58.755Z,14.40
2018-05-15T10:17:26.210Z,14.40
2018-05-15T10:19:53.676Z,14.50
2018-05-15T10:22:21.885Z,14.60
2018-05-15T10:24:50.110Z,14.70
2018-05-15T10:27:17.575Z,14.70
2018-05-15T10:29:45.785Z,14.60
2018-05-15T10:32:14.090Z,14.50
2018-05-15T10:34:41.468Z,14.50
2018-05-15T10:37:08.926Z,14.50
2018-05-15T10:39:36.365Z,14.50
2018-05-15T10:42:03.838Z,14.50
2018-05-15T10:44:31.285Z,14.60
2018-05-15T10:46:58.754Z,14.60
2018-05-15T10:49:26.202Z,14.70
2018-05-15T10:51:53.678Z,14.70
2018-05-15T10:54:21.887Z,14.90
2018-05-15T10:56:50.114Z,14.90
2018-05-15T10:59:18.406Z,14.90
2018-05-15T11:01:45.857Z,15.00
2018-05-15T11:04:13.322Z,15.00
2018-05-15T11:06:40.776Z,15.00
2018-05-15T11:09:08.227Z,14.90
2018-05-15T11:11:35.718Z,14.90
2018-05-15T11:14:03.182Z,15.00
2018-05-15T11:16:30.634Z,15.00
2018-05-15T11:18:58.088Z,15.00
2018-05-15T11:21:37.535Z,15.10
2018-05-15T11:27:07.477Z,15.10
2018-05-15T11:29:34.930Z,15.20
2018-05-15T11:32:02.377Z,15.20
2018-05-15T11:34:29.829Z,15.30
2018-05-15T11:36:57.303Z,15.40
2018-05-15T11:39:24.765Z,15.40
2018-05-15T11:41:52.310Z,15.40
2018-05-15T11:44:19.683Z,15.30
2018-05-15T11:46:47.125Z,15.40
2018-05-15T11:49:15.049Z,15.40
2018-05-15T11:51:42.809Z,15.40
2018-05-15T11:54:09.528Z,15.40
2018-05-15T11:56:36.970Z,15.40
2018-05-15T11:59:04.851Z,15.50
2018-05-15T12:01:32.297Z,15.60
2018-05-15T12:03:59.810Z,15.70
2018-05-15T12:06:27.203Z,15.70
2018-05-15T12:08:54.666Z,15.70
2018-05-15T12:11:22.110Z,15.80
2018-05-15T12:13:49.573Z,15.80
2018-05-15T12:16:17.019Z,15.90
2018-05-15T12:18:45.240Z,16.00
2018-05-15T12:21:13.485Z,16.00
2018-05-15T12:23:40.909Z,16.00
2018-05-15T12:26:08.357Z,16.10
2018-05-15T12:28:35.816Z,16.20
2018-05-15T12:31:03.259Z,16.20
2018-05-15T12:33:30.724Z,16.20
2018-05-15T12:35:58.175Z,16.20
2018-05-15T12:38:25.634Z,16.10
2018-05-15T12:40:53.092Z,16.00
2018-05-15T12:43:20.547Z,15.90
2018-05-15T12:45:47.999Z,15.90
2018-05-15T12:48:15.547Z,15.90
2018-05-15T12:50:42.914Z,15.80
2018-05-15T12:53:10.370Z,15.70
2018-05-15T12:55:37.831Z,15.70
2018-05-15T12:58:05.268Z,15.70
2018-05-15T13:00:32.728Z,15.60
2018-05-15T13:03:00.187Z,15.60
2018-05-15T13:05:27.646Z,15.60
2018-05-15T13:07:55.100Z,15.70
2018-05-15T13:10:22.566Z,15.70
2018-05-15T13:12:50.017Z,15.90
2018-05-15T13:15:17.471Z,16.00
2018-05-15T13:17:44.913Z,16.20
2018-05-15T13:20:12.367Z,16.30
2018-05-15T13:22:39.809Z,16.30
2018-05-15T13:25:07.256Z,16.20
2018-05-15T13:27:35.474Z,16.00
2018-05-15T13:30:02.934Z,16.00
2018-05-15T13:32:30.381Z,15.90
2018-05-15T13:34:57.845Z,15.80
2018-05-15T13:37:25.293Z,15.80
2018-05-15T13:39:52.750Z,15.80
2018-05-15T13:42:20.205Z,15.80
2018-05-15T13:44:47.652Z,15.90
2018-05-15T13:47:15.112Z,15.90
2018-05-15T13:49:42.562Z,15.80
2018-05-15T13:52:10.022Z,15.90
2018-05-15T13:54:37.479Z,16.00
2018-05-15T13:57:04.931Z,16.10
2018-05-15T13:59:32.398Z,16.20
2018-05-15T14:01:59.840Z,16.30
2018-05-15T14:04:27.312Z,16.40
2018-05-15T14:06:54.762Z,16.40
2018-05-15T14:09:22.653Z,16.40
2018-05-15T14:11:50.085Z,16.50
2018-05-15T14:14:17.543Z,16.60
2018-05-15T14:16:45.102Z,16.60
2018-05-15T14:19:12.580Z,16.70
2018-05-15T14:21:40.014Z,16.70
2018-05-15T14:24:07.474Z,16.80
2018-05-15T14:26:35.018Z,16.90
2018-05-15T14:29:02.488Z,16.90
2018-05-15T14:31:30.000Z,17.00
2018-05-15T14:33:57.389Z,17.10
2018-05-15T14:36:24.850Z,17.20
2018-05-15T14:38:52.299Z,17.70
2018-05-15T14:41:19.754Z,18.40
2018-05-15T14:43:47.213Z,18.70
2018-05-15T14:46:14.666Z,18.80
2018-05-15T14:48:42.106Z,18.70
2018-05-15T14:54:05.915Z,18.10
2018-05-15T14:56:33.375Z,17.80
2018-05-15T14:59:00.822Z,17.50
2018-05-15T15:01:28.331Z,17.30
2018-05-15T15:03:55.850Z,17.20
2018-05-15T15:06:23.266Z,17.20
2018-05-15T15:08:50.711Z,17.30
2018-05-15T15:11:18.156Z,17.30
2018-05-15T15:13:46.368Z,17.00
2018-05-15T15:16:13.834Z,17.00
2018-05-15T15:18:41.276Z,16.90
2018-05-15T15:21:08.728Z,16.70
2018-05-15T15:23:36.202Z,16.60
2018-05-15T15:26:03.664Z,16.50
2018-05-15T15:28:31.112Z,16.50
2018-05-15T15:30:59.058Z,16.50
2018-05-15T15:33:26.498Z,16.40
2018-05-15T15:35:53.961Z,16.40
2018-05-15T15:38:21.412Z,16.30
2018-05-15T15:40:48.896Z,16.20
2018-05-15T15:43:16.396Z,16.10
2018-05-15T15:45:43.858Z,16.10
2018-05-15T15:50:46.813Z,16.10
2018-05-15T15:53:14.268Z,16.10
2018-05-15T15:55:41.723Z,16.20
2018-05-15T15:58:09.174Z,16.30
2018-05-15T16:00:36.629Z,16.50
2018-05-15T16:03:04.094Z,16.50
2018-05-15T16:05:31.532Z,16.60
2018-05-15T16:07:58.986Z,16.60
2018-05-15T16:10:26.444Z,16.60
2018-05-15T16:12:53.914Z,16.60
2018-05-15T16:15:21.357Z,16.70
2018-05-15T16:17:48.818Z,16.70
2018-05-15T16:20:16.264Z,16.70
2018-05-15T16:22:43.805Z,16.70
2018-05-15T16:25:11.161Z,16.60
2018-05-15T16:27:38.896Z,16.60
2018-05-15T16:30:07.322Z,16.40
2018-05-15T16:32:35.066Z,16.40
2018-05-15T16:35:02.750Z,16.30
2018-05-15T16:37:31.134Z,16.10
2018-05-15T16:39:58.836Z,15.90
2018-05-15T16:42:26.560Z,15.70
2018-05-15T16:44:54.245Z,15.50
2018-05-15T16:47:22.918Z,15.30
2018-05-15T16:49:50.761Z,15.30
2018-05-15T16:52:18.507Z,15.20
2018-05-15T16:54:46.614Z,15.10
2018-05-15T16:57:14.976Z,15.00
2018-05-15T16:59:42.667Z,15.00
2018-05-15T17:02:10.909Z,14.80
2018-05-15T17:04:38.363Z,14.80
2018-05-15T17:07:05.823Z,14.80
2018-05-15T17:09:33.278Z,14.70
2018-05-15T17:12:01.521Z,14.50
2018-05-15T17:14:29.747Z,14.50
2018-05-15T17:16:57.253Z,14.40
2018-05-15T17:19:24.695Z,14.40
2018-05-15T17:21:52.914Z,14.30
2018-05-15T17:24:20.399Z,14.30
2018-05-15T17:26:47.847Z,14.30
2018-05-15T17:29:15.297Z,14.20
2018-05-15T17:31:42.750Z,14.10
2018-05-15T17:34:10.236Z,14.10
2018-05-15T17:36:38.447Z,13.90
2018-05-15T17:39:05.979Z,13.90
2018-05-15T17:41:33.739Z,13.90
2018-05-15T17:44:01.463Z,13.90
2018-05-15T17:46:29.918Z,13.80
2018-05-15T17:48:57.617Z,13.80
2018-05-15T17:51:26.457Z,13.70
2018-05-15T17:53:54.199Z,13.70
2018-05-15T17:56:21.668Z,13.70
2018-05-15T17:58:49.147Z,13.70
2018-05-15T18:01:16.599Z,13.70
2018-05-15T18:03:44.063Z,13.60
2018-05-15T18:06:11.515Z,13.60
2018-05-15T18:08:38.960Z,13.60
2018-05-15T18:11:06.409Z,13.60
2018-05-15T18:13:33.869Z,13.60
2018-05-15T18:16:01.322Z,13.50
2018-05-15T18:18:28.785Z,13.50
2018-05-15T18:20:56.249Z,13.50
2018-05-15T18:23:24.473Z,13.40
2018-05-15T18:25:52.692Z,13.40
2018-05-15T18:28:20.157Z,13.30
2018-05-15T18:30:47.592Z,13.30
2018-05-15T18:33:15.077Z,13.30
2018-05-15T18:35:42.511Z,13.30
2018-05-15T18:38:09.977Z,13.20
2018-05-15T18:40:37.436Z,13.20
2018-05-15T18:43:04.891Z,13.20
2018-05-15T18:45:32.336Z,13.20
2018-05-15T18:48:00.417Z,13.10
2018-05-15T18:50:27.874Z,13.10
2018-05-15T18:52:55.723Z,13.10
2018-05-15T18:55:23.157Z,13.10
2018-05-15T18:57:50.686Z,13.00
2018-05-15T19:00:18.083Z,13.00
2018-05-15T19:02:46.622Z,13.00
2018-05-15T19:05:14.165Z,12.90
2018-05-15T19:07:41.871Z,12.90
2018-05-15T19:10:09.632Z,12.90
2018-05-15T19:12:37.081Z,12.90
2018-05-15T19:15:04.551Z,12.80
2018-05-15T19:17:31.990Z,12.80
2018-05-15T19:19:59.439Z,12.80
2018-05-15T19:22:30.971Z,12.80
2018-05-15T19:25:01.807Z,12.80
2018-05-15T19:27:29.986Z,12.80
2018-05-15T19:29:58.460Z,12.70
2018-05-15T19:32:32.529Z,12.70
2018-05-15T19:35:00.370Z,12.70
2018-05-15T19:37:28.035Z,12.70
2018-05-15T19:39:56.049Z,12.70
2018-05-15T19:42:23.493Z,12.70
2018-05-15T19:44:51.048Z,12.70
2018-05-15T19:47:18.412Z,12.70
2018-05-15T19:49:45.863Z,12.70
2018-05-15T19:52:14.198Z,12.60
2018-05-15T19:54:41.880Z,12.60
2018-05-15T19:57:09.324Z,12.60
2018-05-15T19:59:36.765Z,12.60
2018-05-15T20:02:04.245Z,12.60
2018-05-15T20:04:31.800Z,12.60
2018-05-15T20:06:59.256Z,12.60
2018-05-15T20:09:26.715Z,12.60
2018-05-15T20:11:54.154Z,12.50
2018-05-15T20:14:21.616Z,12.50
2018-05-15T20:16:49.073Z,12.50
2018-05-15T20:19:16.537Z,12.50
2018-05-15T20:21:43.986Z,12.40
2018-05-15T20:24:11.439Z,12.40
2018-05-15T20:26:38.902Z,12.40
2018-05-15T20:29:06.416Z,12.40
2018-05-15T20:31:33.803Z,12.40
2018-05-15T20:34:01.256Z,12.40
2018-05-15T20:36:28.721Z,12.40
2018-05-15T20:38:56.166Z,12.40
2018-05-15T20:41:23.639Z,12.30
2018-05-15T20:43:53.432Z,12.30
2018-05-15T20:46:20.889Z,12.30
2018-05-15T20:48:48.345Z,12.30
2018-05-15T20:51:15.799Z,12.20
2018-05-15T20:53:43.248Z,12.20
2018-05-15T20:56:10.710Z,12.20
2018-05-15T20:58:38.167Z,12.20
2018-05-15T21:01:05.662Z,12.20
2018-05-15T21:03:33.109Z,12.10
2018-05-15T21:06:00.588Z,12.10
2018-05-15T21:08:28.025Z,12.10
2018-05-15T21:10:55.487Z,12.10
2018-05-15T21:13:22.939Z,12.10
2018-05-15T21:15:50.407Z,12.10
2018-05-15T21:18:17.890Z,12.10
2018-05-15T21:20:46.104Z,12.10
2018-05-15T21:23:13.570Z,12.10
2018-05-15T21:25:41.061Z,12.10
2018-05-15T21:28:08.511Z,12.10
2018-05-15T21:30:36.740Z,12.10
2018-05-15T21:33:04.206Z,12.00
2018-05-15T21:35:31.649Z,12.10
2018-05-15T21:37:59.884Z,12.10
2018-05-15T21:40:28.110Z,12.10
2018-05-15T21:42:55.552Z,12.10
2018-05-15T21:45:23.004Z,12.10
2018-05-15T21:47:50.457Z,12.10
2018-05-15T21:50:17.920Z,12.10
2018-05-15T21:52:45.421Z,12.00
2018-05-15T21:55:12.825Z,12.10
2018-05-15T21:57:40.287Z,12.10
2018-05-15T22:00:07.738Z,12.10
2018-05-15T22:02:35.200Z,12.10
2018-05-15T22:05:02.641Z,12.10
2018-05-15T22:07:30.100Z,12.10
2018-05-15T22:09:57.546Z,12.10
2018-05-15T22:12:36.817Z,12.10
2018-05-15T22:15:16.184Z,12.00
2018-05-15T22:17:56.220Z,12.00
2018-05-15T22:20:35.600Z,12.00
2018-05-15T22:23:02.549Z,12.00
2018-05-15T22:25:30.001Z,12.00
2018-05-15T22:27:57.539Z,12.00
2018-05-15T22:30:24.914Z,12.00
2018-05-15T22:32:52.372Z,12.00
2018-05-15T22:35:19.808Z,12.00
2018-05-15T22:37:47.260Z,12.00
2018-05-15T22:40:14.707Z,12.00
2018-05-15T22:42:42.941Z,12.00
2018-05-15T22:45:10.390Z,12.00
2018-05-15T22:47:37.851Z,12.00
2018-05-15T22:50:05.306Z,12.00
2018-05-15T22:52:33.531Z,12.00
2018-05-15T22:55:00.968Z,11.90
2018-05-15T22:57:29.189Z,12.00
2018-05-15T22:59:56.637Z,11.90
2018-05-15T23:02:24.101Z,12.00
2018-05-15T23:04:51.549Z,11.90
2018-05-15T23:07:19.001Z,11.90
2018-05-15T23:09:46.450Z,11.90
2018-05-15T23:12:13.910Z,11.90
2018-05-15T23:14:41.349Z,11.90
2018-05-15T23:17:08.811Z,11.90
2018-05-15T23:19:36.260Z,11.90
2018-05-15T23:22:03.727Z,11.90
2018-05-15T23:24:31.163Z,11.90
2018-05-15T23:26:58.615Z,11.90
2018-05-15T23:29:26.922Z,11.90
2018-05-15T23:31:54.287Z,11.90
2018-05-15T23:34:21.722Z,11.90
2018-05-15T23:36:49.178Z,11.90
2018-05-15T23:39:16.611Z,11.90
2018-05-15T23:41:44.841Z,11.90
2018-05-15T23:44:12.286Z,11.90
2018-05-15T23:46:39.751Z,11.80
2018-05-15T23:49:07.207Z,11.90
2018-05-15T23:51:34.662Z,11.90
2018-05-15T23:54:02.117Z,11.80
2018-05-15T23:56:29.562Z,11.90
2018-05-15T23:58:57.027Z,11.90
